createdAt,value
2018-08-22T00:00:10.249Z,18.99
2018-08-22T00:02:38.248Z,18.89
2018-08-22T00:05:06.238Z,18.83
2018-08-22T00:07:34.247Z,18.95
2018-08-22T00:10:02.220Z,19.02
2018-08-22T00:12:30.224Z,18.95
2018-08-22T00:14:58.253Z,19.05
2018-08-22T00:17:26.250Z,19.11
2018-08-22T00:19:54.261Z,19.10
2018-08-22T00:22:22.273Z,19.18
2018-08-22T00:24:50.396Z,19.18
2018-08-22T00:27:18.396Z,19.15
2018-08-22T00:29:46.411Z,19.10
2018-08-22T00:32:14.400Z,19.14
2018-08-22T00:34:42.416Z,19.13
2018-08-22T00:37:10.412Z,19.12
2018-08-22T00:39:38.419Z,19.15
2018-08-22T00:42:06.413Z,19.09
2018-08-22T00:44:34.388Z,19.13
2018-08-22T00:47:02.387Z,19.12
2018-08-22T00:49:30.428Z,19.05
2018-08-22T00:51:58.424Z,18.99
2018-08-22T00:54:26.456Z,18.87
2018-08-22T00:56:54.457Z,18.88
2018-08-22T00:59:22.600Z,18.80
2018-08-22T01:01:50.593Z,18.65
2018-08-22T01:04:18.596Z,18.60
2018-08-22T01:06:46.600Z,18.59
2018-08-22T01:09:14.620Z,18.47
2018-08-22T01:11:42.596Z,18.44
2018-08-22T01:14:10.592Z,18.33
2018-08-22T01:16:38.570Z,18.40
2018-08-22T01:19:06.557Z,18.37
2018-08-22T01:21:34.616Z,18.34
2018-08-22T01:24:02.608Z,18.34
2018-08-22T01:26:30.638Z,18.34
2018-08-22T01:28:58.644Z,18.28
2018-08-22T01:31:26.722Z,18.40
2018-08-22T01:33:54.704Z,18.41
2018-08-22T01:36:22.692Z,18.37
2018-08-22T01:38:50.693Z,18.40
2018-08-22T01:41:18.684Z,18.41
2018-08-22T01:43:46.681Z,18.42
2018-08-22T01:46:14.796Z,18.48
2018-08-22T01:48:42.808Z,18.51
2018-08-22T01:51:10.809Z,18.49
2018-08-22T01:53:38.865Z,18.55
2018-08-22T01:56:06.858Z,18.48
2018-08-22T01:58:34.876Z,18.41
2018-08-22T02:01:02.908Z,18.57
2018-08-22T02:03:30.913Z,18.65
2018-08-22T02:05:58.896Z,18.56
2018-08-22T02:08:26.908Z,18.44
2018-08-22T02:10:54.900Z,18.42
2018-08-22T02:13:22.892Z,18.50
2018-08-22T02:15:50.879Z,18.44
2018-08-22T02:18:18.908Z,18.44
2018-08-22T02:20:46.916Z,18.38
2018-08-22T02:23:14.924Z,18.30
2018-08-22T02:25:42.912Z,18.27
2018-08-22T02:28:10.991Z,18.15
2018-08-22T02:30:39.107Z,18.15
2018-08-22T02:33:07.098Z,18.09
2018-08-22T02:35:35.081Z,18.08
2018-08-22T02:38:03.104Z,18.07
2018-08-22T02:40:31.097Z,18.04
2018-08-22T02:42:59.085Z,18.11
2018-08-22T02:45:27.117Z,18.02
2018-08-22T02:47:55.177Z,17.83
2018-08-22T02:50:23.360Z,17.84
2018-08-22T02:52:51.374Z,17.74
2018-08-22T02:55:19.381Z,17.76
2018-08-22T02:57:47.370Z,17.70
2018-08-22T03:00:15.477Z,17.48
2018-08-22T03:02:43.507Z,17.45
2018-08-22T03:05:11.523Z,17.61
2018-08-22T03:07:39.496Z,17.66
2018-08-22T03:10:07.842Z,17.61
2018-08-22T03:12:35.834Z,17.64
2018-08-22T03:15:03.873Z,17.56
2018-08-22T03:17:31.892Z,17.60
2018-08-22T03:20:00.124Z,17.61
2018-08-22T03:22:28.137Z,17.58
2018-08-22T03:24:56.164Z,17.46
2018-08-22T03:27:24.252Z,17.45
2018-08-22T03:29:52.252Z,17.49
2018-08-22T03:32:20.231Z,17.52
2018-08-22T03:34:48.208Z,17.46
2018-08-22T03:37:16.265Z,17.55
2018-08-22T03:39:44.284Z,17.52
2018-08-22T03:42:12.285Z,17.44
2018-08-22T03:44:40.278Z,17.52
2018-08-22T03:47:08.269Z,17.56
2018-08-22T03:49:36.316Z,17.52
2018-08-22T03:52:04.301Z,17.60
2018-08-22T03:54:32.320Z,17.59
2018-08-22T03:57:00.329Z,17.56
2018-08-22T03:59:28.321Z,17.58
2018-08-22T04:01:56.322Z,17.59
2018-08-22T04:04:24.336Z,17.50
2018-08-22T04:06:52.328Z,17.40
2018-08-22T04:09:20.313Z,17.37
2018-08-22T04:11:48.441Z,17.36
2018-08-22T04:14:16.416Z,17.34
2018-08-22T04:16:44.409Z,17.34
2018-08-22T04:19:12.531Z,17.16
2018-08-22T04:21:40.552Z,17.18
2018-08-22T04:24:08.540Z,17.20
2018-08-22T04:26:36.537Z,17.14
2018-08-22T04:29:04.875Z,17.20
2018-08-22T04:31:32.907Z,17.22
2018-08-22T04:34:00.902Z,17.27
2018-08-22T04:36:28.954Z,17.26
2018-08-22T04:38:56.937Z,17.25
2018-08-22T04:41:25.071Z,17.14
2018-08-22T04:43:53.059Z,17.25
2018-08-22T04:46:21.048Z,17.11
2018-08-22T04:48:49.048Z,17.21
2018-08-22T04:51:17.043Z,17.28
2018-08-22T04:53:45.032Z,17.40
2018-08-22T04:56:13.037Z,17.42
2018-08-22T04:58:41.054Z,17.50
2018-08-22T05:01:09.078Z,17.51
2018-08-22T05:03:37.116Z,17.64
2018-08-22T05:06:05.151Z,17.86
2018-08-22T05:08:33.104Z,18.04
2018-08-22T05:11:01.111Z,18.77
2018-08-22T05:13:29.115Z,19.95
2018-08-22T05:15:57.139Z,21.22
2018-08-22T05:18:25.172Z,22.52
2018-08-22T05:20:53.173Z,23.71
2018-08-22T05:23:21.168Z,24.82
2018-08-22T05:25:49.181Z,25.63
2018-08-22T05:28:17.198Z,26.30
2018-08-22T05:30:45.177Z,26.72
2018-08-22T05:33:13.179Z,27.31
2018-08-22T05:35:41.214Z,27.48
2018-08-22T05:38:09.341Z,27.60
2018-08-22T05:40:37.392Z,27.85
2018-08-22T05:43:05.369Z,28.13
2018-08-22T05:45:33.398Z,28.57
2018-08-22T05:48:01.393Z,28.57
2018-08-22T05:50:29.385Z,28.64
2018-08-22T05:52:57.414Z,28.74
2018-08-22T05:55:25.396Z,28.63
2018-08-22T05:57:53.397Z,28.72
2018-08-22T06:00:21.404Z,28.84
2018-08-22T06:02:49.400Z,28.33
2018-08-22T06:05:17.415Z,28.82
2018-08-22T06:07:45.418Z,29.24
2018-08-22T06:10:13.417Z,29.40
2018-08-22T06:12:41.412Z,29.54
2018-08-22T06:15:09.430Z,29.62
2018-08-22T06:17:37.454Z,29.88
2018-08-22T06:20:05.518Z,30.26
2018-08-22T06:22:33.542Z,30.26
2018-08-22T06:25:01.597Z,30.33
2018-08-22T06:27:29.593Z,31.05
2018-08-22T06:29:57.626Z,31.35
2018-08-22T06:32:25.819Z,30.83
2018-08-22T06:34:53.794Z,31.22
2018-08-22T06:37:21.781Z,31.53
2018-08-22T06:39:49.773Z,32.06
2018-08-22T06:42:17.764Z,31.97
2018-08-22T06:44:45.753Z,32.68
2018-08-22T06:47:13.833Z,31.89
2018-08-22T06:49:41.828Z,31.74
2018-08-22T06:52:09.825Z,31.61
2018-08-22T06:54:37.833Z,31.26
2018-08-22T06:57:05.886Z,31.93
2018-08-22T06:59:33.820Z,32.54
2018-08-22T07:02:01.838Z,32.86
2018-08-22T07:04:29.834Z,32.42
2018-08-22T07:06:57.832Z,31.71
2018-08-22T07:09:25.847Z,32.05
2018-08-22T07:11:53.832Z,32.46
2018-08-22T07:14:21.844Z,32.55
2018-08-22T07:16:49.849Z,33.35
2018-08-22T07:19:17.859Z,34.34
2018-08-22T07:21:45.885Z,34.34
2018-08-22T07:24:13.907Z,33.54
2018-08-22T07:26:41.892Z,32.81
2018-08-22T07:29:10.068Z,32.58
2018-08-22T07:31:38.053Z,31.14
2018-08-22T07:34:06.064Z,30.57
2018-08-22T07:36:34.060Z,30.89
2018-08-22T07:39:02.073Z,31.03
2018-08-22T07:41:30.068Z,32.02
2018-08-22T07:43:58.117Z,32.56
2018-08-22T07:46:26.112Z,32.36
2018-08-22T07:48:54.117Z,33.05
2018-08-22T07:51:22.172Z,33.76
2018-08-22T07:53:50.177Z,34.62
2018-08-22T07:56:18.149Z,35.45
2018-08-22T07:58:46.130Z,35.34
2018-08-22T08:01:14.132Z,35.04
2018-08-22T08:03:42.129Z,34.97
2018-08-22T08:06:10.116Z,34.26
2018-08-22T08:08:38.263Z,34.01
2018-08-22T08:11:06.280Z,33.99
2018-08-22T08:13:34.237Z,33.55
2018-08-22T08:16:02.249Z,33.53
2018-08-22T08:18:30.243Z,34.10
2018-08-22T08:20:58.241Z,34.28
2018-08-22T08:23:26.228Z,34.36
2018-08-22T08:25:54.209Z,34.65
2018-08-22T08:28:22.261Z,35.15
2018-08-22T08:30:50.326Z,34.84
2018-08-22T08:33:18.327Z,34.29
2018-08-22T08:35:46.307Z,34.15
2018-08-22T08:38:14.517Z,33.81
2018-08-22T08:40:42.540Z,33.42
2018-08-22T08:43:10.538Z,33.39
2018-08-22T08:45:39.216Z,32.96
2018-08-22T08:48:07.440Z,32.79
2018-08-22T08:50:35.388Z,32.74
2018-08-22T08:53:03.399Z,32.59
2018-08-22T08:55:31.405Z,32.24
2018-08-22T08:57:59.445Z,32.40
2018-08-22T09:00:27.447Z,31.86
2018-08-22T09:02:55.441Z,31.76
2018-08-22T09:05:23.445Z,31.63
2018-08-22T09:07:51.428Z,31.32
2018-08-22T09:10:19.425Z,31.05
2018-08-22T09:12:47.415Z,31.01
2018-08-22T09:15:15.445Z,31.05
2018-08-22T09:17:43.457Z,30.95
2018-08-22T09:20:11.434Z,30.89
2018-08-22T09:22:39.425Z,30.81
2018-08-22T09:25:07.421Z,30.75
2018-08-22T09:27:35.409Z,30.40
2018-08-22T09:30:03.424Z,30.00
2018-08-22T09:32:31.452Z,30.05
2018-08-22T09:34:59.456Z,30.33
2018-08-22T09:37:27.460Z,30.58
2018-08-22T09:39:55.497Z,30.63
2018-08-22T09:42:23.470Z,30.23
2018-08-22T09:44:51.480Z,30.03
2018-08-22T09:47:19.464Z,30.17
2018-08-22T09:49:47.495Z,29.70
2018-08-22T09:52:15.778Z,29.80
2018-08-22T09:54:55.873Z,29.60
2018-08-22T09:57:25.258Z,29.81
2018-08-22T09:59:53.329Z,30.08
2018-08-22T10:02:21.609Z,30.44
2018-08-22T10:04:49.613Z,30.18
2018-08-22T10:07:17.668Z,30.16
2018-08-22T10:09:45.670Z,30.07
2018-08-22T10:12:13.669Z,30.65
2018-08-22T10:14:41.751Z,31.05
2018-08-22T10:17:09.753Z,31.00
2018-08-22T10:19:37.750Z,31.00
2018-08-22T10:22:05.820Z,31.37
2018-08-22T10:24:33.865Z,31.30
2018-08-22T10:27:01.858Z,30.96
2018-08-22T10:29:29.858Z,31.07
2018-08-22T10:31:57.841Z,31.16
2018-08-22T10:34:25.849Z,31.15
2018-08-22T10:36:53.833Z,31.33
2018-08-22T10:39:21.894Z,31.29
2018-08-22T10:41:49.842Z,31.50
2018-08-22T10:44:17.865Z,31.73
2018-08-22T10:46:45.885Z,31.84
2018-08-22T10:49:14.053Z,32.02
2018-08-22T10:51:42.049Z,31.89
2018-08-22T10:54:10.121Z,31.80
2018-08-22T10:56:38.171Z,31.32
2018-08-22T10:59:06.188Z,30.74
2018-08-22T11:01:34.193Z,30.69
2018-08-22T11:04:02.238Z,30.57
2018-08-22T11:06:30.253Z,31.10
2018-08-22T11:08:58.306Z,31.16
2018-08-22T11:11:26.308Z,31.41
2018-08-22T11:13:54.316Z,31.65
2018-08-22T11:16:22.346Z,31.66
2018-08-22T11:18:50.329Z,31.83
2018-08-22T11:21:29.796Z,31.30
2018-08-22T11:24:09.644Z,31.29
2018-08-22T11:26:49.093Z,31.36
2018-08-22T11:29:28.708Z,31.52
2018-08-22T11:32:08.117Z,31.66
2018-08-22T11:34:44.274Z,31.58
2018-08-22T11:37:13.609Z,31.87
2018-08-22T11:39:43.169Z,32.19
2018-08-22T11:42:11.196Z,32.40
2018-08-22T11:44:39.197Z,32.73
2018-08-22T11:47:07.200Z,32.55
2018-08-22T11:49:35.188Z,32.23
2018-08-22T11:52:03.265Z,31.96
2018-08-22T11:54:32.025Z,31.98
2018-08-22T11:57:00.444Z,31.96
2018-08-22T11:59:28.468Z,31.87
2018-08-22T12:01:56.610Z,31.62
2018-08-22T12:04:24.549Z,31.44
2018-08-22T12:06:52.745Z,31.77
2018-08-22T12:09:20.810Z,32.16
2018-08-22T12:11:48.807Z,32.39
2018-08-22T12:14:16.890Z,32.50
2018-08-22T12:16:44.901Z,32.55
2018-08-22T12:19:13.002Z,32.41
2018-08-22T12:21:41.745Z,32.38
2018-08-22T12:24:10.047Z,32.52
2018-08-22T12:26:38.083Z,32.47
2018-08-22T12:29:06.056Z,32.37
2018-08-22T12:31:34.458Z,32.45
2018-08-22T12:34:02.448Z,32.83
2018-08-22T12:36:30.473Z,32.97
2018-08-22T12:38:58.476Z,32.74
2018-08-22T12:41:26.788Z,32.72
2018-08-22T12:43:55.101Z,32.60
2018-08-22T12:46:23.273Z,32.84
2018-08-22T12:48:51.281Z,32.86
2018-08-22T12:51:19.413Z,32.97
2018-08-22T12:53:47.417Z,33.48
2018-08-22T12:56:15.457Z,33.72
2018-08-22T12:58:43.617Z,33.61
2018-08-22T13:01:11.629Z,33.45
2018-08-22T13:03:39.670Z,33.23
2018-08-22T13:06:07.882Z,33.49
2018-08-22T13:08:35.901Z,33.58
2018-08-22T13:11:03.939Z,33.79
2018-08-22T13:13:31.886Z,34.09
2018-08-22T13:15:59.925Z,34.25
2018-08-22T13:18:28.008Z,34.12
2018-08-22T13:20:56.108Z,34.11
2018-08-22T13:23:24.228Z,33.96
2018-08-22T13:25:52.437Z,33.74
2018-08-22T13:28:20.606Z,34.00
2018-08-22T13:30:48.806Z,34.25
2018-08-22T13:33:16.998Z,34.00
2018-08-22T13:35:44.991Z,34.19
2018-08-22T13:38:13.020Z,34.02
2018-08-22T13:40:41.306Z,34.00
2018-08-22T13:43:09.306Z,34.14
2018-08-22T13:45:37.695Z,34.29
2018-08-22T13:48:05.858Z,34.58
2018-08-22T13:50:33.864Z,35.07
2018-08-22T13:53:01.852Z,35.18
2018-08-22T13:55:29.837Z,35.36
2018-08-22T13:57:57.830Z,35.22
2018-08-22T14:00:25.821Z,35.26
2018-08-22T14:02:53.804Z,34.61
2018-08-22T14:05:21.796Z,34.25
2018-08-22T14:07:49.863Z,34.32
2018-08-22T14:10:17.856Z,34.37
2018-08-22T14:12:45.833Z,33.81
2018-08-22T14:15:13.832Z,33.40
2018-08-22T14:17:42.014Z,33.08
2018-08-22T14:20:10.076Z,33.09
2018-08-22T14:22:38.934Z,33.55
2018-08-22T14:25:07.102Z,33.89
2018-08-22T14:27:35.848Z,34.22
2018-08-22T14:30:05.873Z,34.12
2018-08-22T14:32:33.899Z,34.24
2018-08-22T14:35:01.995Z,34.31
2018-08-22T14:37:30.156Z,34.15
2018-08-22T14:39:58.292Z,34.27
2018-08-22T14:42:26.354Z,34.22
2018-08-22T14:44:54.505Z,33.89
2018-08-22T14:47:22.512Z,33.71
2018-08-22T14:49:50.532Z,33.50
2018-08-22T14:52:18.573Z,33.57
2018-08-22T14:54:46.597Z,33.76
2018-08-22T14:57:14.617Z,34.16
2018-08-22T14:59:42.617Z,34.32
2018-08-22T15:02:10.641Z,34.74
2018-08-22T15:04:38.620Z,34.90
2018-08-22T15:07:06.606Z,34.72
2018-08-22T15:09:34.598Z,34.65
2018-08-22T15:12:02.648Z,34.45
2018-08-22T15:14:30.636Z,34.45
2018-08-22T15:16:58.685Z,34.54
2018-08-22T15:19:26.737Z,34.44
2018-08-22T15:21:54.708Z,34.46
2018-08-22T15:24:22.694Z,34.54
2018-08-22T15:26:50.788Z,34.71
2018-08-22T15:29:18.781Z,34.71
2018-08-22T15:31:46.772Z,35.10
2018-08-22T15:34:14.766Z,35.17
2018-08-22T15:36:42.740Z,34.42
2018-08-22T15:39:11.450Z,34.43
2018-08-22T15:41:39.430Z,34.54
2018-08-22T15:44:07.485Z,34.67
2018-08-22T15:46:35.476Z,34.51
2018-08-22T15:49:03.483Z,34.82
2018-08-22T15:51:31.497Z,35.03
2018-08-22T15:54:08.398Z,34.78
2018-08-22T15:56:37.624Z,34.44
2018-08-22T15:59:05.677Z,34.61
2018-08-22T16:01:33.660Z,34.54
2018-08-22T16:04:01.656Z,34.43
2018-08-22T16:06:29.634Z,34.14
2018-08-22T16:08:57.636Z,34.53
2018-08-22T16:11:25.617Z,34.51
2018-08-22T16:13:53.642Z,34.70
2018-08-22T16:16:21.632Z,34.88
2018-08-22T16:18:49.681Z,35.08
2018-08-22T16:21:17.725Z,35.03
2018-08-22T16:23:45.725Z,34.94
2018-08-22T16:26:13.715Z,34.91
2018-08-22T16:28:51.361Z,34.93
2018-08-22T16:31:19.608Z,34.99
2018-08-22T16:33:47.597Z,34.97
2018-08-22T16:36:20.655Z,34.76
2018-08-22T16:38:48.673Z,34.79
2018-08-22T16:41:17.556Z,34.86
2018-08-22T16:43:46.432Z,34.83
2018-08-22T16:46:15.617Z,34.53
2018-08-22T16:48:45.418Z,34.71
2018-08-22T16:51:14.544Z,34.48
2018-08-22T16:53:42.901Z,34.56
2018-08-22T16:56:10.992Z,34.56
2018-08-22T16:58:38.974Z,34.72
2018-08-22T17:01:07.001Z,34.65
2018-08-22T17:03:35.005Z,34.85
2018-08-22T17:06:12.324Z,34.78
2018-08-22T17:08:40.516Z,34.77
2018-08-22T17:11:11.073Z,34.91
2018-08-22T17:13:48.768Z,34.81
2018-08-22T17:16:16.793Z,34.77
2018-08-22T17:18:45.832Z,34.83
2018-08-22T17:21:13.897Z,34.84
2018-08-22T17:23:42.289Z,34.82
2018-08-22T17:26:11.988Z,34.77
2018-08-22T17:28:41.833Z,34.68
2018-08-22T17:31:10.555Z,34.65
2018-08-22T17:33:40.836Z,34.66
2018-08-22T17:36:09.795Z,34.59
2018-08-22T17:38:37.987Z,34.70
2018-08-22T17:41:06.076Z,34.65
2018-08-22T17:43:54.200Z,34.61
2018-08-22T17:46:23.116Z,34.50
2018-08-22T17:48:51.145Z,34.39
2018-08-22T17:51:19.333Z,34.20
2018-08-22T17:53:47.316Z,33.97
2018-08-22T17:56:15.304Z,33.87
2018-08-22T17:58:43.650Z,33.73
2018-08-22T18:01:11.668Z,33.61
2018-08-22T18:03:39.853Z,33.46
2018-08-22T18:06:07.845Z,33.34
2018-08-22T18:08:35.892Z,33.17
2018-08-22T18:11:03.957Z,33.03
2018-08-22T18:13:31.992Z,32.91
2018-08-22T18:15:59.997Z,32.72
2018-08-22T18:18:28.019Z,32.52
2018-08-22T18:20:58.345Z,32.31
2018-08-22T18:23:27.330Z,32.12
2018-08-22T18:26:02.900Z,31.86
2018-08-22T18:28:30.902Z,31.63
2018-08-22T18:30:58.888Z,31.45
2018-08-22T18:33:26.883Z,31.18
2018-08-22T18:35:54.956Z,30.99
2018-08-22T18:38:22.988Z,30.77
2018-08-22T18:41:02.492Z,30.46
2018-08-22T18:43:30.519Z,30.31
2018-08-22T18:46:01.107Z,30.03
2018-08-22T18:48:30.596Z,29.93
2018-08-22T18:50:58.833Z,29.77
2018-08-22T18:53:26.874Z,29.62
2018-08-22T18:56:06.421Z,29.45
2018-08-22T18:58:34.518Z,29.28
2018-08-22T19:01:03.528Z,29.14
2018-08-22T19:03:31.589Z,28.90
2018-08-22T19:05:59.610Z,28.74
2018-08-22T19:08:27.621Z,28.58
2018-08-22T19:10:55.662Z,28.41
2018-08-22T19:13:24.640Z,28.29
2018-08-22T19:15:58.783Z,28.18
2018-08-22T19:18:27.016Z,28.05
2018-08-22T19:20:56.497Z,27.93
2018-08-22T19:23:24.708Z,27.80
2018-08-22T19:25:53.650Z,27.54
2018-08-22T19:28:21.644Z,27.41
2018-08-22T19:30:49.740Z,27.29
2018-08-22T19:33:21.905Z,27.16
2018-08-22T19:35:50.239Z,27.00
2018-08-22T19:38:20.079Z,26.90
2018-08-22T19:40:48.193Z,26.79
2018-08-22T19:43:16.240Z,26.67
2018-08-22T19:45:44.250Z,26.50
2018-08-22T19:48:12.245Z,26.32
2018-08-22T19:50:40.260Z,26.34
2018-08-22T19:53:08.253Z,26.25
2018-08-22T19:55:37.042Z,26.16
2018-08-22T19:58:05.197Z,26.16
2018-08-22T20:00:33.193Z,26.01
2018-08-22T20:03:01.247Z,25.85
2018-08-22T20:05:43.510Z,25.74
2018-08-22T20:08:11.534Z,25.66
2018-08-22T20:10:39.554Z,25.62
2018-08-22T20:13:07.567Z,25.50
2018-08-22T20:15:35.643Z,25.41
2018-08-22T20:18:03.749Z,25.36
2018-08-22T20:20:31.929Z,25.30
2018-08-22T20:22:59.970Z,25.21
2018-08-22T20:25:28.001Z,25.15
2018-08-22T20:27:56.005Z,25.11
2018-08-22T20:30:23.999Z,25.06
2018-08-22T20:32:58.342Z,25.01
2018-08-22T20:35:31.096Z,24.95
2018-08-22T20:38:00.340Z,24.87
2018-08-22T20:40:28.512Z,24.78
2018-08-22T20:42:56.605Z,24.70
2018-08-22T20:45:29.974Z,24.72
2018-08-22T20:48:03.878Z,24.57
2018-08-22T20:50:31.897Z,24.50
2018-08-22T20:53:00.887Z,24.44
2018-08-22T20:55:29.032Z,24.37
2018-08-22T20:57:57.376Z,24.23
2018-08-22T21:00:26.016Z,24.16
2018-08-22T21:02:55.220Z,24.08
2018-08-22T21:05:23.240Z,24.05
2018-08-22T21:07:51.265Z,23.99
2018-08-22T21:10:19.656Z,23.94
2018-08-22T21:12:48.116Z,23.84
2018-08-22T21:15:16.207Z,23.72
2018-08-22T21:17:44.294Z,23.69
2018-08-22T21:20:30.912Z,23.53
2018-08-22T21:22:59.044Z,23.37
2018-08-22T21:25:27.073Z,23.29
2018-08-22T21:27:55.191Z,23.26
2018-08-22T21:30:23.294Z,23.23
2018-08-22T21:32:51.244Z,23.20
2018-08-22T21:35:28.705Z,23.14
2018-08-22T21:38:08.728Z,22.87
2018-08-22T21:40:36.752Z,22.45
2018-08-22T21:43:05.092Z,22.47
2018-08-22T21:45:33.124Z,22.44
2018-08-22T21:48:13.818Z,22.29
2018-08-22T21:50:42.479Z,22.29
2018-08-22T21:53:10.511Z,22.19
2018-08-22T21:55:40.383Z,22.21
2018-08-22T21:58:09.269Z,22.23
2018-08-22T22:00:37.763Z,22.33
2018-08-22T22:03:06.188Z,22.37
2018-08-22T22:05:46.336Z,22.22
2018-08-22T22:08:14.344Z,22.32
2018-08-22T22:10:42.480Z,22.41
2018-08-22T22:13:11.154Z,22.40
2018-08-22T22:15:44.356Z,22.50
2018-08-22T22:18:14.447Z,22.46
2018-08-22T22:20:42.693Z,22.56
2018-08-22T22:23:10.704Z,22.61
2018-08-22T22:25:38.709Z,22.45
2018-08-22T22:28:06.757Z,22.39
2018-08-22T22:30:34.729Z,22.35
2018-08-22T22:33:02.772Z,22.30
2018-08-22T22:35:37.450Z,22.19
2018-08-22T22:38:13.176Z,22.07
2018-08-22T22:40:41.255Z,21.96
2018-08-22T22:43:11.268Z,21.93
2018-08-22T22:45:39.276Z,21.86
2018-08-22T22:48:07.265Z,21.68
2018-08-22T22:50:36.922Z,21.58
2018-08-22T22:53:05.000Z,21.73
2018-08-22T22:55:33.245Z,21.76
2018-08-22T22:58:02.249Z,21.77
2018-08-22T23:00:30.316Z,21.60
2018-08-22T23:03:03.900Z,21.57
2018-08-22T23:05:32.257Z,21.32
2018-08-22T23:08:01.644Z,21.30
2018-08-22T23:10:29.768Z,21.09
2018-08-22T23:12:57.813Z,20.90
2018-08-22T23:15:28.180Z,20.87
2018-08-22T23:17:57.472Z,20.82
2018-08-22T23:20:33.125Z,20.75
2018-08-22T23:23:01.155Z,20.71
2018-08-22T23:25:29.577Z,20.79
2018-08-22T23:27:57.572Z,20.86
2018-08-22T23:30:30.904Z,20.68
2018-08-22T23:32:58.905Z,20.62
2018-08-22T23:35:29.864Z,20.59
2018-08-22T23:37:59.892Z,20.55
2018-08-22T23:40:29.169Z,20.46
2018-08-22T23:42:57.220Z,20.64
2018-08-22T23:45:25.252Z,20.59
2018-08-22T23:47:53.258Z,20.68
2018-08-22T23:50:21.273Z,20.71
2018-08-22T23:52:52.767Z,20.82
2018-08-22T23:55:22.096Z,20.77
2018-08-22T23:57:52.820Z,20.75
